sensor_id;sensor_type;location;lat;lon;timestamp;pressure;altitude;pressure_sealevel;temperature;humidity
30343;BME280;17145;49.902;8.680;'2023-10-08 01:58:11';100760;;;17;46
30343;BME280;17145;49.902;8.680;'2023-10-08 02:00:39';100770;;;17;46
30343;BME280;17145;49.902;8.680;'2023-10-08 02:03:06';100760;;;17;46
30343;BME280;17145;49.902;8.680;'2023-10-08 02:05:35';100750;;;17;46
30343;BME280;17145;49.902;8.680;'2023-10-08 02:08:03';100750;;;17;46
30343;BME280;17145;49.902;8.680;'2023-10-08 02:10:34';100760;;;17;46
30343;BME280;17145;49.902;8.680;'2023-10-08 02:13:02';100770;;;17;46
30343;BME280;17145;49.902;8.680;'2023-10-08 02:15:30';100770;;;17;45
30343;BME280;17145;49.902;8.680;'2023-10-08 02:17:57';100770;;;17;45
30343;BME280;17145;49.902;8.680;'2023-10-08 02:20:25';100770;;;17;45
30343;BME280;17145;49.902;8.680;'2023-10-08 02:22:52';100770;;;17;45
30343;BME280;17145;49.902;8.680;'2023-10-08 02:25:19';100770;;;17;45
30343;BME280;17145;49.902;8.680;'2023-10-08 02:27:47';100760;;;17;45
30343;BME280;17145;49.902;8.680;'2023-10-08 02:30:14';100760;;;17;45
30343;BME280;17145;49.902;8.680;'2023-10-08 02:32:42';100760;;;17;46
30343;BME280;17145;49.902;8.680;'2023-10-08 02:35:09';100750;;;17;46
30343;BME280;17145;49.902;8.680;'2023-10-08 02:37:36';100750;;;17;46
30343;BME280;17145;49.902;8.680;'2023-10-08 02:40:05';100750;;;17;46
30343;BME280;17145;49.902;8.680;'2023-10-08 02:42:33';100750;;;17;46
30343;BME280;17145;49.902;8.680;'2023-10-08 02:45:00';100750;;;17;46
30343;BME280;17145;49.902;8.680;'2023-10-08 02:47:27';100750;;;17;46
30343;BME280;17145;49.902;8.680;'2023-10-08 02:49:55';100760;;;17;46
30343;BME280;17145;49.902;8.680;'2023-10-08 02:52:23';100760;;;17;46
30343;BME280;17145;49.902;8.680;'2023-10-08 02:54:50';100760;;;17;46
30343;BME280;17145;49.902;8.680;'2023-10-08 02:57:21';100750;;;17;46
30343;BME280;17145;49.902;8.680;'2023-10-08 02:59:49';100750;;;17;46
30343;BME280;17145;49.902;8.680;'2023-10-08 03:02:16';100740;;;17;46
30343;BME280;17145;49.902;8.680;'2023-10-08 03:04:44';100730;;;17;46
30343;BME280;17145;49.902;8.680;'2023-10-08 03:07:14';100740;;;17;46
30343;BME280;17145;49.902;8.680;'2023-10-08 03:09:42';100740;;;17;46
30343;BME280;17145;49.902;8.680;'2023-10-08 03:12:11';100730;;;17;46
30343;BME280;17145;49.902;8.680;'2023-10-08 03:14:38';100720;;;17;46
30343;BME280;17145;49.902;8.680;'2023-10-08 03:17:06';100730;;;17;46
30343;BME280;17145;49.902;8.680;'2023-10-08 03:19:33';100730;;;17;46
30343;BME280;17145;49.902;8.680;'2023-10-08 03:22:04';100720;;;17;46
30343;BME280;17145;49.902;8.680;'2023-10-08 03:24:31';100720;;;17;46
30343;BME280;17145;49.902;8.680;'2023-10-08 03:26:59';100710;;;17;46
30343;BME280;17145;49.902;8.680;'2023-10-08 03:29:26';100720;;;17;46
30343;BME280;17145;49.902;8.680;'2023-10-08 03:31:53';100720;;;17;46
30343;BME280;17145;49.902;8.680;'2023-10-08 03:34:21';100720;;;17;46
30343;BME280;17145;49.902;8.680;'2023-10-08 03:36:48';100720;;;17;46
30343;BME280;17145;49.902;8.680;'2023-10-08 03:39:16';100720;;;17;46
30343;BME280;17145;49.902;8.680;'2023-10-08 03:41:44';100720;;;17;46
30343;BME280;17145;49.902;8.680;'2023-10-08 03:44:12';100720;;;17;46
30343;BME280;17145;49.902;8.680;'2023-10-08 03:46:40';100710;;;17;46
30343;BME280;17145;49.902;8.680;'2023-10-08 03:49:07';100720;;;17;46
30343;BME280;17145;49.902;8.680;'2023-10-08 03:51:34';100730;;;17;46
30343;BME280;17145;49.902;8.680;'2023-10-08 03:54:03';100730;;;17;46
30343;BME280;17145;49.902;8.680;'2023-10-08 03:56:30';100730;;;17;46
30343;BME280;17145;49.902;8.680;'2023-10-08 03:58:57';100740;;;17;46
30343;BME280;17145;49.902;8.680;'2023-10-08 04:01:25';100750;;;17;46
30343;BME280;17145;49.902;8.680;'2023-10-08 04:03:52';100750;;;17;46
30343;BME280;17145;49.902;8.680;'2023-10-08 04:06:20';100760;;;17;46
30343;BME280;17145;49.902;8.680;'2023-10-08 04:08:47';100760;;;17;47
30343;BME280;17145;49.902;8.680;'2023-10-08 04:11:15';100760;;;17;47
30343;BME280;17145;49.902;8.680;'2023-10-08 04:13:42';100760;;;17;47
30343;BME280;17145;49.902;8.680;'2023-10-08 04:16:10';100760;;;17;47
30343;BME280;17145;49.902;8.680;'2023-10-08 04:18:37';100760;;;17;47
30343;BME280;17145;49.902;8.680;'2023-10-08 04:21:05';100760;;;17;47
30343;BME280;17145;49.902;8.680;'2023-10-08 04:23:32';100760;;;16;47
30343;BME280;17145;49.902;8.680;'2023-10-08 04:26:00';100760;;;17;47
30343;BME280;17145;49.902;8.680;'2023-10-08 04:28:27';100760;;;17;47
30343;BME280;17145;49.902;8.680;'2023-10-08 04:30:54';100750;;;17;47
30343;BME280;17145;49.902;8.680;'2023-10-08 04:33:22';100750;;;17;47
30343;BME280;17145;49.902;8.680;'2023-10-08 04:35:49';100750;;;17;47
30343;BME280;17145;49.902;8.680;'2023-10-08 04:38:17';100740;;;17;47
30343;BME280;17145;49.902;8.680;'2023-10-08 04:40:45';100730;;;16;47
30343;BME280;17145;49.902;8.680;'2023-10-08 04:43:12';100730;;;16;47
30343;BME280;17145;49.902;8.680;'2023-10-08 04:45:41';100740;;;17;47
30343;BME280;17145;49.902;8.680;'2023-10-08 04:48:08';100730;;;16;48
30343;BME280;17145;49.902;8.680;'2023-10-08 04:50:36';100740;;;17;47
30343;BME280;17145;49.902;8.680;'2023-10-08 04:53:04';100740;;;16;48
30343;BME280;17145;49.902;8.680;'2023-10-08 04:55:31';100740;;;16;48
30343;BME280;17145;49.902;8.680;'2023-10-08 04:57:58';100730;;;16;48
30343;BME280;17145;49.902;8.680;'2023-10-08 05:00:26';100730;;;17;48
30343;BME280;17145;49.902;8.680;'2023-10-08 05:02:53';100730;;;16;48
30343;BME280;17145;49.902;8.680;'2023-10-08 05:05:21';100730;;;17;48
30343;BME280;17145;49.902;8.680;'2023-10-08 05:07:48';100730;;;16;48
30343;BME280;17145;49.902;8.680;'2023-10-08 05:10:16';100740;;;17;48
30343;BME280;17145;49.902;8.680;'2023-10-08 05:12:43';100740;;;16;48
30343;BME280;17145;49.902;8.680;'2023-10-08 05:15:11';100750;;;16;48
30343;BME280;17145;49.902;8.680;'2023-10-08 05:17:38';100750;;;16;48
30343;BME280;17145;49.902;8.680;'2023-10-08 05:20:07';100760;;;16;48
30343;BME280;17145;49.902;8.680;'2023-10-08 05:22:34';100760;;;17;48
30343;BME280;17145;49.902;8.680;'2023-10-08 05:25:01';100750;;;16;48
30343;BME280;17145;49.902;8.680;'2023-10-08 05:27:29';100760;;;17;48
30343;BME280;17145;49.902;8.680;'2023-10-08 05:29:56';100760;;;16;48
30343;BME280;17145;49.902;8.680;'2023-10-08 05:32:23';100770;;;16;48
30343;BME280;17145;49.902;8.680;'2023-10-08 05:34:51';100780;;;17;48
30343;BME280;17145;49.902;8.680;'2023-10-08 05:37:21';100790;;;16;49
30343;BME280;17145;49.902;8.680;'2023-10-08 05:39:50';100780;;;16;48
30343;BME280;17145;49.902;8.680;'2023-10-08 05:42:22';100790;;;16;48
30343;BME280;17145;49.902;8.680;'2023-10-08 05:44:49';100800;;;16;48
30343;BME280;17145;49.902;8.680;'2023-10-08 05:47:17';100800;;;17;48
30343;BME280;17145;49.902;8.680;'2023-10-08 05:49:45';100800;;;17;48
30343;BME280;17145;49.902;8.680;'2023-10-08 05:52:13';100810;;;17;48
30343;BME280;17145;49.902;8.680;'2023-10-08 05:54:40';100810;;;17;48
30343;BME280;17145;49.902;8.680;'2023-10-08 05:57:08';100810;;;17;48
30343;BME280;17145;49.902;8.680;'2023-10-08 05:59:35';100810;;;16;48
30343;BME280;17145;49.902;8.680;'2023-10-08 06:02:03';100810;;;16;48
30343;BME280;17145;49.902;8.680;'2023-10-08 06:04:30';100810;;;16;48
30343;BME280;17145;49.902;8.680;'2023-10-08 06:06:58';100810;;;16;48
30343;BME280;17145;49.902;8.680;'2023-10-08 06:09:25';100820;;;16;48
30343;BME280;17145;49.902;8.680;'2023-10-08 06:11:52';100820;;;16;49
30343;BME280;17145;49.902;8.680;'2023-10-08 06:14:21';100810;;;16;48
30343;BME280;17145;49.902;8.680;'2023-10-08 06:16:50';100800;;;16;48
30343;BME280;17145;49.902;8.680;'2023-10-08 06:19:17';100800;;;16;48
30343;BME280;17145;49.902;8.680;'2023-10-08 06:21:45';100800;;;16;48
30343;BME280;17145;49.902;8.680;'2023-10-08 06:24:13';100800;;;16;48
30343;BME280;17145;49.902;8.680;'2023-10-08 06:26:40';100790;;;16;48
30343;BME280;17145;49.902;8.680;'2023-10-08 06:29:08';100790;;;16;48
30343;BME280;17145;49.902;8.680;'2023-10-08 06:31:35';100790;;;16;48
30343;BME280;17145;49.902;8.680;'2023-10-08 06:34:03';100780;;;16;48
30343;BME280;17145;49.902;8.680;'2023-10-08 06:36:31';100780;;;16;48
30343;BME280;17145;49.902;8.680;'2023-10-08 06:38:58';100780;;;16;48
30343;BME280;17145;49.902;8.680;'2023-10-08 06:41:26';100770;;;16;48
30343;BME280;17145;49.902;8.680;'2023-10-08 06:43:53';100770;;;16;48
30343;BME280;17145;49.902;8.680;'2023-10-08 06:46:21';100770;;;16;48
30343;BME280;17145;49.902;8.680;'2023-10-08 06:48:48';100770;;;16;48
30343;BME280;17145;49.902;8.680;'2023-10-08 06:51:16';100760;;;16;48
30343;BME280;17145;49.902;8.680;'2023-10-08 06:53:44';100770;;;16;48
30343;BME280;17145;49.902;8.680;'2023-10-08 06:56:12';100780;;;16;48
30343;BME280;17145;49.902;8.680;'2023-10-08 06:58:40';100780;;;16;48
30343;BME280;17145;49.902;8.680;'2023-10-08 07:01:08';100790;;;16;48
30343;BME280;17145;49.902;8.680;'2023-10-08 07:03:35';100790;;;16;49
30343;BME280;17145;49.902;8.680;'2023-10-08 07:06:03';100790;;;16;49
30343;BME280;17145;49.902;8.680;'2023-10-08 07:08:30';100790;;;16;49
30343;BME280;17145;49.902;8.680;'2023-10-08 07:10:58';100800;;;16;48
30343;BME280;17145;49.902;8.680;'2023-10-08 07:13:25';100800;;;16;49
30343;BME280;17145;49.902;8.680;'2023-10-08 07:15:52';100810;;;16;48
30343;BME280;17145;49.902;8.680;'2023-10-08 07:18:20';100800;;;16;48
30343;BME280;17145;49.902;8.680;'2023-10-08 07:20:47';100810;;;16;48
30343;BME280;17145;49.902;8.680;'2023-10-08 07:23:17';100810;;;16;48
30343;BME280;17145;49.902;8.680;'2023-10-08 07:25:44';100820;;;16;48
30343;BME280;17145;49.902;8.680;'2023-10-08 07:28:12';100820;;;16;48
30343;BME280;17145;49.902;8.680;'2023-10-08 07:30:39';100810;;;16;48
30343;BME280;17145;49.902;8.680;'2023-10-08 07:33:08';100810;;;16;48
30343;BME280;17145;49.902;8.680;'2023-10-08 07:35:36';100800;;;16;48
30343;BME280;17145;49.902;8.680;'2023-10-08 07:38:04';100790;;;16;48
30343;BME280;17145;49.902;8.680;'2023-10-08 07:40:31';100790;;;16;48
30343;BME280;17145;49.902;8.680;'2023-10-08 07:42:58';100780;;;16;48
30343;BME280;17145;49.902;8.680;'2023-10-08 07:45:26';100780;;;16;48
30343;BME280;17145;49.902;8.680;'2023-10-08 07:47:53';100780;;;16;48
30343;BME280;17145;49.902;8.680;'2023-10-08 07:50:22';100780;;;16;48
30343;BME280;17145;49.902;8.680;'2023-10-08 07:52:49';100780;;;16;48
30343;BME280;17145;49.902;8.680;'2023-10-08 07:55:17';100770;;;16;48
30343;BME280;17145;49.902;8.680;'2023-10-08 07:57:44';100760;;;16;48
30343;BME280;17145;49.902;8.680;'2023-10-08 08:00:13';100760;;;16;48
30343;BME280;17145;49.902;8.680;'2023-10-08 08:02:42';100760;;;16;48
30343;BME280;17145;49.902;8.680;'2023-10-08 08:05:10';100760;;;16;48
30343;BME280;17145;49.902;8.680;'2023-10-08 08:07:38';100770;;;16;48
30343;BME280;17145;49.902;8.680;'2023-10-08 08:10:06';100770;;;16;48
30343;BME280;17145;49.902;8.680;'2023-10-08 08:12:34';100780;;;16;48
30343;BME280;17145;49.902;8.680;'2023-10-08 08:15:01';100790;;;16;48
30343;BME280;17145;49.902;8.680;'2023-10-08 08:17:28';100790;;;16;48
30343;BME280;17145;49.902;8.680;'2023-10-08 08:19:56';100800;;;16;48
30343;BME280;17145;49.902;8.680;'2023-10-08 08:22:24';100810;;;16;48
30343;BME280;17145;49.902;8.680;'2023-10-08 08:24:51';100830;;;16;48
30343;BME280;17145;49.902;8.680;'2023-10-08 08:27:19';100850;;;16;48
30343;BME280;17145;49.902;8.680;'2023-10-08 08:29:46';100860;;;16;48
30343;BME280;17145;49.902;8.680;'2023-10-08 08:32:14';100870;;;16;49
30343;BME280;17145;49.902;8.680;'2023-10-08 08:34:41';100880;;;16;48
30343;BME280;17145;49.902;8.680;'2023-10-08 08:37:09';100880;;;16;49
30343;BME280;17145;49.902;8.680;'2023-10-08 08:39:36';100880;;;16;48
30343;BME280;17145;49.902;8.680;'2023-10-08 08:42:04';100870;;;16;48
30343;BME280;17145;49.902;8.680;'2023-10-08 08:44:31';100860;;;16;48
30343;BME280;17145;49.902;8.680;'2023-10-08 08:46:59';100860;;;16;48
30343;BME280;17145;49.902;8.680;'2023-10-08 08:49:26';100880;;;16;48
30343;BME280;17145;49.902;8.680;'2023-10-08 08:51:54';100890;;;16;48
30343;BME280;17145;49.902;8.680;'2023-10-08 08:54:21';100890;;;16;48
30343;BME280;17145;49.902;8.680;'2023-10-08 08:56:49';100900;;;16;48
30343;BME280;17145;49.902;8.680;'2023-10-08 08:59:16';100890;;;16;48
30343;BME280;17145;49.902;8.680;'2023-10-08 09:01:43';100900;;;16;49
30343;BME280;17145;49.902;8.680;'2023-10-08 09:04:12';100900;;;16;48
30343;BME280;17145;49.902;8.680;'2023-10-08 09:06:41';100900;;;16;49
30343;BME280;17145;49.902;8.680;'2023-10-08 09:09:10';100900;;;17;48
30343;BME280;17145;49.902;8.680;'2023-10-08 09:11:38';100900;;;17;49
30343;BME280;17145;49.902;8.680;'2023-10-08 09:14:06';100890;;;17;48
30343;BME280;17145;49.902;8.680;'2023-10-08 09:16:33';100890;;;17;48
30343;BME280;17145;49.902;8.680;'2023-10-08 09:19:01';100880;;;17;48
30343;BME280;17145;49.902;8.680;'2023-10-08 09:21:29';100890;;;16;48
30343;BME280;17145;49.902;8.680;'2023-10-08 09:23:57';100910;;;17;48
30343;BME280;17145;49.902;8.680;'2023-10-08 09:26:30';100910;;;16;48
30343;BME280;17145;49.902;8.680;'2023-10-08 09:28:57';100930;;;17;47
30343;BME280;17145;49.902;8.680;'2023-10-08 09:31:25';100930;;;17;47
30343;BME280;17145;49.902;8.680;'2023-10-08 09:33:54';100920;;;17;48
30343;BME280;17145;49.902;8.680;'2023-10-08 09:36:22';100930;;;17;48
30343;BME280;17145;49.902;8.680;'2023-10-08 09:38:51';100930;;;17;47
30343;BME280;17145;49.902;8.680;'2023-10-08 09:41:19';100920;;;17;47
30343;BME280;17145;49.902;8.680;'2023-10-08 09:43:48';100920;;;17;48
30343;BME280;17145;49.902;8.680;'2023-10-08 09:46:15';100930;;;17;47
30343;BME280;17145;49.902;8.680;'2023-10-08 09:48:42';100920;;;17;47
30343;BME280;17145;49.902;8.680;'2023-10-08 09:51:10';100900;;;17;47
30343;BME280;17145;49.902;8.680;'2023-10-08 09:53:37';100910;;;17;47
30343;BME280;17145;49.902;8.680;'2023-10-08 09:56:05';100920;;;17;47
30343;BME280;17145;49.902;8.680;'2023-10-08 09:58:33';100920;;;17;47
30343;BME280;17145;49.902;8.680;'2023-10-08 10:01:03';100920;;;17;47
30343;BME280;17145;49.902;8.680;'2023-10-08 10:03:30';100920;;;17;47
30343;BME280;17145;49.902;8.680;'2023-10-08 10:05:58';100910;;;17;47
30343;BME280;17145;49.902;8.680;'2023-10-08 10:08:25';100910;;;17;47
30343;BME280;17145;49.902;8.680;'2023-10-08 10:10:53';100910;;;17;47
30343;BME280;17145;49.902;8.680;'2023-10-08 10:13:20';100900;;;17;47
30343;BME280;17145;49.902;8.680;'2023-10-08 10:15:48';100890;;;17;47
30343;BME280;17145;49.902;8.680;'2023-10-08 10:18:15';100900;;;17;47
30343;BME280;17145;49.902;8.680;'2023-10-08 10:20:42';100900;;;17;46
30343;BME280;17145;49.902;8.680;'2023-10-08 10:23:10';100900;;;17;47
30343;BME280;17145;49.902;8.680;'2023-10-08 10:25:38';100890;;;17;47
30343;BME280;17145;49.902;8.680;'2023-10-08 10:28:06';100900;;;17;47
30343;BME280;17145;49.902;8.680;'2023-10-08 10:30:33';100910;;;18;47
30343;BME280;17145;49.902;8.680;'2023-10-08 10:33:00';100910;;;17;47
30343;BME280;17145;49.902;8.680;'2023-10-08 10:35:28';100910;;;17;46
30343;BME280;17145;49.902;8.680;'2023-10-08 10:37:55';100910;;;18;46
30343;BME280;17145;49.902;8.680;'2023-10-08 10:40:23';100910;;;17;46
30343;BME280;17145;49.902;8.680;'2023-10-08 10:42:51';100910;;;17;46
30343;BME280;17145;49.902;8.680;'2023-10-08 10:45:20';100920;;;17;46
30343;BME280;17145;49.902;8.680;'2023-10-08 10:47:48';100930;;;18;46
30343;BME280;17145;49.902;8.680;'2023-10-08 10:50:16';100930;;;17;46
30343;BME280;17145;49.902;8.680;'2023-10-08 10:52:44';100940;;;17;46
30343;BME280;17145;49.902;8.680;'2023-10-08 10:55:11';100940;;;17;46
30343;BME280;17145;49.902;8.680;'2023-10-08 10:57:39';100940;;;17;46
30343;BME280;17145;49.902;8.680;'2023-10-08 11:00:08';100940;;;17;46
30343;BME280;17145;49.902;8.680;'2023-10-08 11:02:35';100940;;;18;46
30343;BME280;17145;49.902;8.680;'2023-10-08 11:05:04';100940;;;18;47
30343;BME280;17145;49.902;8.680;'2023-10-08 11:07:31';100940;;;18;47
30343;BME280;17145;49.902;8.680;'2023-10-08 11:09:59';100920;;;18;46
30343;BME280;17145;49.902;8.680;'2023-10-08 11:12:27';100930;;;17;46
30343;BME280;17145;49.902;8.680;'2023-10-08 11:15:00';100930;;;18;46
30343;BME280;17145;49.902;8.680;'2023-10-08 11:17:28';100940;;;18;46
30343;BME280;17145;49.902;8.680;'2023-10-08 11:19:55';100940;;;18;46
30343;BME280;17145;49.902;8.680;'2023-10-08 11:22:23';100950;;;18;46
30343;BME280;17145;49.902;8.680;'2023-10-08 11:24:50';100960;;;18;45
30343;BME280;17145;49.902;8.680;'2023-10-08 11:27:19';100960;;;18;45
30343;BME280;17145;49.902;8.680;'2023-10-08 11:29:46';100970;;;18;45
30343;BME280;17145;49.902;8.680;'2023-10-08 11:32:14';100970;;;18;46
30343;BME280;17145;49.902;8.680;'2023-10-08 11:34:43';100960;;;18;46
30343;BME280;17145;49.902;8.680;'2023-10-08 11:37:10';100960;;;18;46
30343;BME280;17145;49.902;8.680;'2023-10-08 11:39:42';100970;;;18;45
30343;BME280;17145;49.902;8.680;'2023-10-08 11:42:11';100960;;;18;45
30343;BME280;17145;49.902;8.680;'2023-10-08 11:44:38';100960;;;18;46
30343;BME280;17145;49.902;8.680;'2023-10-08 11:47:08';100960;;;18;46
30343;BME280;17145;49.902;8.680;'2023-10-08 11:49:39';100950;;;18;45
30343;BME280;17145;49.902;8.680;'2023-10-08 11:52:08';100950;;;18;45
30343;BME280;17145;49.902;8.680;'2023-10-08 11:54:43';100950;;;18;45
30343;BME280;17145;49.902;8.680;'2023-10-08 11:57:11';100960;;;19;45
30343;BME280;17145;49.902;8.680;'2023-10-08 11:59:41';100960;;;19;46
30343;BME280;17145;49.902;8.680;'2023-10-08 12:02:09';100960;;;18;45
30343;BME280;17145;49.902;8.680;'2023-10-08 12:04:42';100960;;;19;45
30343;BME280;17145;49.902;8.680;'2023-10-08 12:07:11';100960;;;19;45
30343;BME280;17145;49.902;8.680;'2023-10-08 12:09:42';100950;;;18;44
30343;BME280;17145;49.902;8.680;'2023-10-08 12:12:11';100950;;;18;44
30343;BME280;17145;49.902;8.680;'2023-10-08 12:14:42';100950;;;19;45
30343;BME280;17145;49.902;8.680;'2023-10-08 12:17:12';100950;;;18;46
30343;BME280;17145;49.902;8.680;'2023-10-08 12:19:40';100940;;;19;45
30343;BME280;17145;49.902;8.680;'2023-10-08 12:22:10';100950;;;19;45
30343;BME280;17145;49.902;8.680;'2023-10-08 12:24:39';100950;;;19;45
30343;BME280;17145;49.902;8.680;'2023-10-08 12:27:10';100950;;;19;45
30343;BME280;17145;49.902;8.680;'2023-10-08 12:29:38';100950;;;19;45
30343;BME280;17145;49.902;8.680;'2023-10-08 12:32:05';100950;;;19;44
30343;BME280;17145;49.902;8.680;'2023-10-08 12:34:38';100950;;;19;44
30343;BME280;17145;49.902;8.680;'2023-10-08 12:37:05';100950;;;19;44
30343;BME280;17145;49.902;8.680;'2023-10-08 12:39:33';100950;;;19;44
30343;BME280;17145;49.902;8.680;'2023-10-08 12:42:02';100950;;;19;44
30343;BME280;17145;49.902;8.680;'2023-10-08 12:44:30';100970;;;19;45
30343;BME280;17145;49.902;8.680;'2023-10-08 12:46:58';100970;;;19;44
30343;BME280;17145;49.902;8.680;'2023-10-08 12:49:26';100970;;;19;44
30343;BME280;17145;49.902;8.680;'2023-10-08 12:51:53';100970;;;19;44
30343;BME280;17145;49.902;8.680;'2023-10-08 12:54:21';100970;;;20;45
30343;BME280;17145;49.902;8.680;'2023-10-08 12:56:48';100970;;;20;45
30343;BME280;17145;49.902;8.680;'2023-10-08 12:59:15';100960;;;20;43
30343;BME280;17145;49.902;8.680;'2023-10-08 13:01:45';100970;;;20;43
30343;BME280;17145;49.902;8.680;'2023-10-08 13:04:13';100970;;;20;44
30343;BME280;17145;49.902;8.680;'2023-10-08 13:06:41';100980;;;20;43
30343;BME280;17145;49.902;8.680;'2023-10-08 13:09:08';100980;;;20;44
30343;BME280;17145;49.902;8.680;'2023-10-08 13:11:35';100970;;;20;42
30343;BME280;17145;49.902;8.680;'2023-10-08 13:14:03';100980;;;20;42
30343;BME280;17145;49.902;8.680;'2023-10-08 13:16:32';100990;;;20;42
30343;BME280;17145;49.902;8.680;'2023-10-08 13:18:59';100990;;;20;42
30343;BME280;17145;49.902;8.680;'2023-10-08 13:21:27';100990;;;21;42
30343;BME280;17145;49.902;8.680;'2023-10-08 13:23:54';100990;;;21;42
30343;BME280;17145;49.902;8.680;'2023-10-08 13:26:24';101000;;;21;43
30343;BME280;17145;49.902;8.680;'2023-10-08 13:28:51';101000;;;21;42
30343;BME280;17145;49.902;8.680;'2023-10-08 13:31:19';101000;;;21;40
30343;BME280;17145;49.902;8.680;'2023-10-08 13:33:47';101000;;;22;41
30343;BME280;17145;49.902;8.680;'2023-10-08 13:36:17';100990;;;21;41
30343;BME280;17145;49.902;8.680;'2023-10-08 13:38:46';100980;;;21;42
30343;BME280;17145;49.902;8.680;'2023-10-08 13:41:15';100970;;;22;42
30343;BME280;17145;49.902;8.680;'2023-10-08 13:43:43';100960;;;22;40
30343;BME280;17145;49.902;8.680;'2023-10-08 13:46:10';100950;;;22;40
30343;BME280;17145;49.902;8.680;'2023-10-08 13:48:38';100950;;;22;40
30343;BME280;17145;49.902;8.680;'2023-10-08 13:51:05';100940;;;22;40
30343;BME280;17145;49.902;8.680;'2023-10-08 13:53:33';100940;;;22;42
30343;BME280;17145;49.902;8.680;'2023-10-08 13:56:01';100940;;;22;41
30343;BME280;17145;49.902;8.680;'2023-10-08 13:58:29';100930;;;22;40
30343;BME280;17145;49.902;8.680;'2023-10-08 14:00:56';100930;;;22;39
30343;BME280;17145;49.902;8.680;'2023-10-08 14:03:24';100920;;;23;39
30343;BME280;17145;49.902;8.680;'2023-10-08 14:05:51';100930;;;23;38
30343;BME280;17145;49.902;8.680;'2023-10-08 14:08:19';100930;;;23;39
30343;BME280;17145;49.902;8.680;'2023-10-08 14:10:47';100920;;;23;38
30343;BME280;17145;49.902;8.680;'2023-10-08 14:13:15';100920;;;23;38
30343;BME280;17145;49.902;8.680;'2023-10-08 14:15:42';100920;;;23;38
30343;BME280;17145;49.902;8.680;'2023-10-08 14:18:10';100920;;;23;37
30343;BME280;17145;49.902;8.680;'2023-10-08 14:20:38';100920;;;23;37
30343;BME280;17145;49.902;8.680;'2023-10-08 14:23:06';100920;;;23;38
30343;BME280;17145;49.902;8.680;'2023-10-08 14:25:33';100920;;;23;38
30343;BME280;17145;49.902;8.680;'2023-10-08 14:28:01';100920;;;23;37
30343;BME280;17145;49.902;8.680;'2023-10-08 14:30:29';100910;;;23;38
30343;BME280;17145;49.902;8.680;'2023-10-08 14:32:57';100920;;;23;37
30343;BME280;17145;49.902;8.680;'2023-10-08 14:35:25';100920;;;23;37
30343;BME280;17145;49.902;8.680;'2023-10-08 14:37:52';100920;;;23;37
30343;BME280;17145;49.902;8.680;'2023-10-08 14:40:20';100920;;;23;37
30343;BME280;17145;49.902;8.680;'2023-10-08 14:42:52';100920;;;23;38
30343;BME280;17145;49.902;8.680;'2023-10-08 14:45:19';100910;;;23;37
30343;BME280;17145;49.902;8.680;'2023-10-08 14:47:49';100910;;;23;36
30343;BME280;17145;49.902;8.680;'2023-10-08 14:50:17';100920;;;23;37
30343;BME280;17145;49.902;8.680;'2023-10-08 14:52:44';100920;;;23;37
30343;BME280;17145;49.902;8.680;'2023-10-08 14:55:12';100920;;;23;36
30343;BME280;17145;49.902;8.680;'2023-10-08 14:57:40';100920;;;23;36
30343;BME280;17145;49.902;8.680;'2023-10-08 15:00:09';100920;;;23;37
30343;BME280;17145;49.902;8.680;'2023-10-08 15:02:36';100910;;;23;37
30343;BME280;17145;49.902;8.680;'2023-10-08 15:05:04';100910;;;24;37
30343;BME280;17145;49.902;8.680;'2023-10-08 15:07:32';100900;;;24;36
30343;BME280;17145;49.902;8.680;'2023-10-08 15:09:59';100900;;;24;37
30343;BME280;17145;49.902;8.680;'2023-10-08 15:12:27';100890;;;23;36
30343;BME280;17145;49.902;8.680;'2023-10-08 15:14:54';100890;;;24;35
30343;BME280;17145;49.902;8.680;'2023-10-08 15:17:21';100890;;;24;36
30343;BME280;17145;49.902;8.680;'2023-10-08 15:19:49';100900;;;23;35
30343;BME280;17145;49.902;8.680;'2023-10-08 15:22:16';100900;;;23;36
30343;BME280;17145;49.902;8.680;'2023-10-08 15:24:44';100900;;;23;36
30343;BME280;17145;49.902;8.680;'2023-10-08 15:27:12';100890;;;23;36
30343;BME280;17145;49.902;8.680;'2023-10-08 15:29:39';100880;;;23;36
30343;BME280;17145;49.902;8.680;'2023-10-08 15:32:06';100880;;;24;37
30343;BME280;17145;49.902;8.680;'2023-10-08 15:34:34';100880;;;24;36
30343;BME280;17145;49.902;8.680;'2023-10-08 15:37:01';100870;;;24;35
30343;BME280;17145;49.902;8.680;'2023-10-08 15:39:29';100870;;;24;35
30343;BME280;17145;49.902;8.680;'2023-10-08 15:41:56';100880;;;24;34
30343;BME280;17145;49.902;8.680;'2023-10-08 15:44:24';100880;;;25;34
30343;BME280;17145;49.902;8.680;'2023-10-08 15:46:51';100880;;;25;34
30343;BME280;17145;49.902;8.680;'2023-10-08 15:49:18';100880;;;24;34
30343;BME280;17145;49.902;8.680;'2023-10-08 15:51:46';100870;;;25;35
30343;BME280;17145;49.902;8.680;'2023-10-08 15:54:14';100870;;;25;34
30343;BME280;17145;49.902;8.680;'2023-10-08 15:56:42';100870;;;25;33
30343;BME280;17145;49.902;8.680;'2023-10-08 15:59:09';100870;;;25;33
30343;BME280;17145;49.902;8.680;'2023-10-08 16:01:37';100880;;;25;34
30343;BME280;17145;49.902;8.680;'2023-10-08 16:04:05';100880;;;25;33
30343;BME280;17145;49.902;8.680;'2023-10-08 16:06:32';100870;;;25;34
30343;BME280;17145;49.902;8.680;'2023-10-08 16:09:00';100870;;;25;33